sensor_id;sensor_type;location;lat;lon;timestamp;pressure;altitude;pressure_sealevel;temperature;humidity
73024;BME280;72676;47.526;8.538;2023-12-14T00:02:09;95464.16;;;6.79;83.85
73024;BME280;72676;47.526;8.538;2023-12-14T00:04:36;95465.41;;;6.85;84.41
73024;BME280;72676;47.526;8.538;2023-12-14T00:07:02;95454.44;;;6.91;83.75
73024;BME280;72676;47.526;8.538;2023-12-14T00:09:29;95467.63;;;7.08;83.52
73024;BME280;72676;47.526;8.538;2023-12-14T00:11:55;95472.81;;;7.18;83.03
73024;BME280;72676;47.526;8.538;2023-12-14T00:14:22;95468.03;;;7.04;83.55
73024;BME280;72676;47.526;8.538;2023-12-14T00:16:48;95478.13;;;7.16;82.71
73024;BME280;72676;47.526;8.538;2023-12-14T00:19:15;95483.06;;;7.29;82.74
73024;BME280;72676;47.526;8.538;2023-12-14T00:21:42;95482.66;;;7.33;82.29
73024;BME280;72676;47.526;8.538;2023-12-14T00:24:08;95492.28;;;7.33;82.10
73024;BME280;72676;47.526;8.538;2023-12-14T00:26:35;95497.47;;;7.33;82.18
73024;BME280;72676;47.526;8.538;2023-12-14T00:29:01;95500.75;;;7.35;82.13
73024;BME280;72676;47.526;8.538;2023-12-14T00:31:28;95500.75;;;7.35;82.16
73024;BME280;72676;47.526;8.538;2023-12-14T00:33:55;95501.19;;;7.40;82.16
73024;BME280;72676;47.526;8.538;2023-12-14T00:36:21;95514.31;;;7.48;81.59
73024;BME280;72676;47.526;8.538;2023-12-14T00:38:48;95517.09;;;7.46;82.51
73024;BME280;72676;47.526;8.538;2023-12-14T00:41:14;95518.47;;;7.41;82.35
73024;BME280;72676;47.526;8.538;2023-12-14T00:43:41;95511.72;;;7.48;82.36
73024;BME280;72676;47.526;8.538;2023-12-14T00:46:07;95512.16;;;7.34;83.01
73024;BME280;72676;47.526;8.538;2023-12-14T00:48:34;95515.97;;;7.30;83.36
73024;BME280;72676;47.526;8.538;2023-12-14T00:51:01;95521.34;;;7.47;82.71
73024;BME280;72676;47.526;8.538;2023-12-14T00:53:27;95525.59;;;7.29;83.41
73024;BME280;72676;47.526;8.538;2023-12-14T00:55:54;95529.69;;;7.41;82.99
73024;BME280;72676;47.526;8.538;2023-12-14T00:58:20;95532.81;;;7.64;82.86
73024;BME280;72676;47.526;8.538;2023-12-14T01:00:47;95531.59;;;7.68;82.24
73024;BME280;72676;47.526;8.538;2023-12-14T01:03:13;95533.63;;;7.74;81.84
73024;BME280;72676;47.526;8.538;2023-12-14T01:05:40;95543.94;;;7.47;83.29
73024;BME280;72676;47.526;8.538;2023-12-14T01:08:07;95538.88;;;7.45;83.44
73024;BME280;72676;47.526;8.538;2023-12-14T01:10:35;95542.00;;;7.30;84.96
73024;BME280;72676;47.526;8.538;2023-12-14T01:13:01;95540.66;;;7.26;85.13
73024;BME280;72676;47.526;8.538;2023-12-14T01:15:28;95546.28;;;7.31;85.47
73024;BME280;72676;47.526;8.538;2023-12-14T01:17:55;95555.44;;;7.25;85.25
73024;BME280;72676;47.526;8.538;2023-12-14T01:20:21;95557.25;;;7.44;85.48
73024;BME280;72676;47.526;8.538;2023-12-14T01:22:48;95563.56;;;7.32;85.45
73024;BME280;72676;47.526;8.538;2023-12-14T01:25:15;95567.38;;;7.28;86.08
73024;BME280;72676;47.526;8.538;2023-12-14T01:27:41;95570.97;;;7.55;85.60
73024;BME280;72676;47.526;8.538;2023-12-14T01:30:08;95583.59;;;7.60;85.06
73024;BME280;72676;47.526;8.538;2023-12-14T01:32:34;95579.88;;;7.53;85.07
73024;BME280;72676;47.526;8.538;2023-12-14T01:35:02;95584.81;;;7.75;84.84
73024;BME280;72676;47.526;8.538;2023-12-14T01:37:28;95581.25;;;7.66;84.43
73024;BME280;72676;47.526;8.538;2023-12-14T01:39:55;95591.94;;;7.35;86.12
73024;BME280;72676;47.526;8.538;2023-12-14T01:42:21;95594.50;;;7.25;86.00
73024;BME280;72676;47.526;8.538;2023-12-14T01:44:48;95591.25;;;7.33;86.22
73024;BME280;72676;47.526;8.538;2023-12-14T01:47:14;95594.66;;;7.33;85.40
73024;BME280;72676;47.526;8.538;2023-12-14T01:49:41;95598.50;;;7.39;85.28
73024;BME280;72676;47.526;8.538;2023-12-14T01:52:08;95593.19;;;7.50;85.45
73024;BME280;72676;47.526;8.538;2023-12-14T01:54:34;95599.38;;;7.49;85.13
73024;BME280;72676;47.526;8.538;2023-12-14T01:57:01;95610.44;;;7.60;84.84
73024;BME280;72676;47.526;8.538;2023-12-14T01:59:27;95608.16;;;7.67;83.86
73024;BME280;72676;47.526;8.538;2023-12-14T02:01:55;95609.78;;;7.58;83.33
73024;BME280;72676;47.526;8.538;2023-12-14T02:04:24;95614.44;;;7.55;83.92
73024;BME280;72676;47.526;8.538;2023-12-14T02:06:51;95619.91;;;7.33;84.04
73024;BME280;72676;47.526;8.538;2023-12-14T02:09:18;95617.59;;;7.49;83.95
73024;BME280;72676;47.526;8.538;2023-12-14T02:11:44;95636.63;;;7.49;83.44
73024;BME280;72676;47.526;8.538;2023-12-14T02:14:11;95641.53;;;7.33;82.36
73024;BME280;72676;47.526;8.538;2023-12-14T02:16:38;95639.78;;;7.34;82.51
73024;BME280;72676;47.526;8.538;2023-12-14T02:19:05;95642.75;;;7.20;82.92
73024;BME280;72676;47.526;8.538;2023-12-14T02:21:32;95647.78;;;7.12;83.73
73024;BME280;72676;47.526;8.538;2023-12-14T02:23:59;95653.59;;;7.25;83.04
73024;BME280;72676;47.526;8.538;2023-12-14T02:26:25;95652.75;;;7.15;82.46
73024;BME280;72676;47.526;8.538;2023-12-14T02:28:52;95651.09;;;7.14;83.24
73024;BME280;72676;47.526;8.538;2023-12-14T02:31:19;95648.75;;;7.11;83.63
73024;BME280;72676;47.526;8.538;2023-12-14T02:33:46;95648.13;;;7.28;83.02
73024;BME280;72676;47.526;8.538;2023-12-14T02:36:12;95649.91;;;7.37;82.02
73024;BME280;72676;47.526;8.538;2023-12-14T02:38:39;95654.44;;;7.35;82.44
73024;BME280;72676;47.526;8.538;2023-12-14T02:41:05;95663.34;;;7.32;82.26
73024;BME280;72676;47.526;8.538;2023-12-14T02:43:32;95662.69;;;7.40;82.36
73024;BME280;72676;47.526;8.538;2023-12-14T02:46:00;95667.91;;;7.40;81.64
73024;BME280;72676;47.526;8.538;2023-12-14T02:48:28;95663.22;;;7.43;81.18
73024;BME280;72676;47.526;8.538;2023-12-14T02:50:59;95660.63;;;7.43;81.60
73024;BME280;72676;47.526;8.538;2023-12-14T02:53:26;95660.78;;;7.51;81.07
73024;BME280;72676;47.526;8.538;2023-12-14T02:55:53;95669.69;;;7.58;81.14
73024;BME280;72676;47.526;8.538;2023-12-14T02:58:20;95676.41;;;7.51;80.90
73024;BME280;72676;47.526;8.538;2023-12-14T03:00:46;95673.41;;;7.56;81.14
73024;BME280;72676;47.526;8.538;2023-12-14T03:03:13;95675.84;;;7.48;81.59
73024;BME280;72676;47.526;8.538;2023-12-14T03:05:40;95683.28;;;7.62;81.78
73024;BME280;72676;47.526;8.538;2023-12-14T03:08:06;95673.16;;;7.59;81.29
73024;BME280;72676;47.526;8.538;2023-12-14T03:10:33;95688.97;;;7.37;81.69
73024;BME280;72676;47.526;8.538;2023-12-14T03:12:59;95694.31;;;7.26;81.99
73024;BME280;72676;47.526;8.538;2023-12-14T03:15:26;95693.63;;;7.24;82.31
73024;BME280;72676;47.526;8.538;2023-12-14T03:17:52;95696.84;;;7.56;81.67
73024;BME280;72676;47.526;8.538;2023-12-14T03:20:20;95702.50;;;7.70;80.54
73024;BME280;72676;47.526;8.538;2023-12-14T03:22:47;95707.81;;;7.59;80.74
73024;BME280;72676;47.526;8.538;2023-12-14T03:25:14;95711.13;;;7.52;80.99
73024;BME280;72676;47.526;8.538;2023-12-14T03:27:40;95715.09;;;7.56;80.98
73024;BME280;72676;47.526;8.538;2023-12-14T03:30:07;95717.44;;;7.59;81.24
73024;BME280;72676;47.526;8.538;2023-12-14T03:32:37;95721.00;;;7.58;80.31
73024;BME280;72676;47.526;8.538;2023-12-14T03:35:05;95723.22;;;7.62;80.65
73024;BME280;72676;47.526;8.538;2023-12-14T03:37:31;95723.63;;;7.67;80.29
73024;BME280;72676;47.526;8.538;2023-12-14T03:39:58;95727.59;;;7.62;80.43
73024;BME280;72676;47.526;8.538;2023-12-14T03:42:24;95729.06;;;7.55;80.57
73024;BME280;72676;47.526;8.538;2023-12-14T03:44:51;95727.44;;;7.54;80.87
73024;BME280;72676;47.526;8.538;2023-12-14T03:47:17;95728.22;;;7.45;81.60
73024;BME280;72676;47.526;8.538;2023-12-14T03:49:44;95740.56;;;7.43;81.51
73024;BME280;72676;47.526;8.538;2023-12-14T03:52:10;95738.75;;;7.34;81.99
73024;BME280;72676;47.526;8.538;2023-12-14T03:54:37;95738.84;;;7.23;82.95
73024;BME280;72676;47.526;8.538;2023-12-14T03:57:04;95746.66;;;7.23;82.69
73024;BME280;72676;47.526;8.538;2023-12-14T03:59:30;95747.56;;;7.12;82.92
73024;BME280;72676;47.526;8.538;2023-12-14T04:01:58;95748.44;;;7.22;82.88
73024;BME280;72676;47.526;8.538;2023-12-14T04:04:25;95755.06;;;7.36;82.24
73024;BME280;72676;47.526;8.538;2023-12-14T04:06:51;95760.41;;;7.34;82.37
73024;BME280;72676;47.526;8.538;2023-12-14T04:09:18;95764.69;;;7.45;82.28
73024;BME280;72676;47.526;8.538;2023-12-14T04:11:44;95771.31;;;7.58;81.46
73024;BME280;72676;47.526;8.538;2023-12-14T04:14:11;95779.66;;;7.43;82.17
73024;BME280;72676;47.526;8.538;2023-12-14T04:16:38;95771.00;;;7.12;83.62
73024;BME280;72676;47.526;8.538;2023-12-14T04:19:04;95791.97;;;7.11;84.35
73024;BME280;72676;47.526;8.538;2023-12-14T04:21:36;95796.34;;;7.10;85.08
73024;BME280;72676;47.526;8.538;2023-12-14T04:24:03;95793.59;;;7.12;85.39
73024;BME280;72676;47.526;8.538;2023-12-14T04:26:30;95803.00;;;7.24;84.98
73024;BME280;72676;47.526;8.538;2023-12-14T04:28:56;95801.94;;;7.36;84.40
73024;BME280;72676;47.526;8.538;2023-12-14T04:31:23;95805.78;;;7.32;84.26
73024;BME280;72676;47.526;8.538;2023-12-14T04:33:49;95812.72;;;7.52;83.69
73024;BME280;72676;47.526;8.538;2023-12-14T04:36:16;95818.72;;;7.43;83.83
73024;BME280;72676;47.526;8.538;2023-12-14T04:38:42;95818.34;;;7.57;83.29
73024;BME280;72676;47.526;8.538;2023-12-14T04:41:12;95819.00;;;7.40;83.49
73024;BME280;72676;47.526;8.538;2023-12-14T04:43:39;95819.88;;;7.59;82.83
73024;BME280;72676;47.526;8.538;2023-12-14T04:46:05;95826.56;;;7.52;82.78
73024;BME280;72676;47.526;8.538;2023-12-14T04:48:32;95838.06;;;7.20;84.23
73024;BME280;72676;47.526;8.538;2023-12-14T04:50:59;95845.19;;;7.18;84.18
73024;BME280;72676;47.526;8.538;2023-12-14T04:53:25;95859.75;;;7.30;84.46
73024;BME280;72676;47.526;8.538;2023-12-14T04:55:52;95860.75;;;7.59;82.97
73024;BME280;72676;47.526;8.538;2023-12-14T04:58:19;95861.88;;;7.66;82.56
73024;BME280;72676;47.526;8.538;2023-12-14T05:00:45;95861.75;;;7.67;82.53
73024;BME280;72676;47.526;8.538;2023-12-14T05:03:12;95869.41;;;7.39;83.29
73024;BME280;72676;47.526;8.538;2023-12-14T05:05:38;95875.19;;;7.42;83.22
73024;BME280;72676;47.526;8.538;2023-12-14T05:08:05;95877.19;;;7.50;82.98
73024;BME280;72676;47.526;8.538;2023-12-14T05:10:31;95875.97;;;7.33;82.88
73024;BME280;72676;47.526;8.538;2023-12-14T05:13:01;95875.97;;;7.33;83.85
73024;BME280;72676;47.526;8.538;2023-12-14T05:15:27;95888.56;;;7.49;83.63
73024;BME280;72676;47.526;8.538;2023-12-14T05:17:54;95891.22;;;7.38;83.20
73024;BME280;72676;47.526;8.538;2023-12-14T05:20:21;95891.03;;;7.30;82.95
73024;BME280;72676;47.526;8.538;2023-12-14T05:22:47;95889.00;;;7.33;83.49
73024;BME280;72676;47.526;8.538;2023-12-14T05:25:14;95898.09;;;7.18;84.10
73024;BME280;72676;47.526;8.538;2023-12-14T05:27:41;95892.63;;;7.21;84.21
73024;BME280;72676;47.526;8.538;2023-12-14T05:30:07;95901.41;;;7.20;84.81
73024;BME280;72676;47.526;8.538;2023-12-14T05:32:34;95910.78;;;7.32;84.01
73024;BME280;72676;47.526;8.538;2023-12-14T05:35:01;95910.31;;;7.48;83.77
73024;BME280;72676;47.526;8.538;2023-12-14T05:37:27;95912.81;;;7.49;82.96
73024;BME280;72676;47.526;8.538;2023-12-14T05:39:54;95918.47;;;7.54;82.82
73024;BME280;72676;47.526;8.538;2023-12-14T05:42:21;95915.09;;;7.63;82.31
73024;BME280;72676;47.526;8.538;2023-12-14T05:44:47;95919.75;;;7.60;83.12
73024;BME280;72676;47.526;8.538;2023-12-14T05:47:14;95927.06;;;7.45;83.26
73024;BME280;72676;47.526;8.538;2023-12-14T05:49:42;95925.59;;;7.32;84.06
73024;BME280;72676;47.526;8.538;2023-12-14T05:52:10;95929.47;;;7.37;84.00
73024;BME280;72676;47.526;8.538;2023-12-14T05:54:37;95941.03;;;7.44;83.91
73024;BME280;72676;47.526;8.538;2023-12-14T05:57:04;95947.19;;;7.43;83.46
73024;BME280;72676;47.526;8.538;2023-12-14T05:59:30;95950.50;;;7.25;83.94
73024;BME280;72676;47.526;8.538;2023-12-14T06:01:58;95954.50;;;7.29;84.05
73024;BME280;72676;47.526;8.538;2023-12-14T06:04:26;95968.25;;;7.31;84.64
73024;BME280;72676;47.526;8.538;2023-12-14T06:06:53;95970.63;;;7.43;84.16
73024;BME280;72676;47.526;8.538;2023-12-14T06:09:19;95977.84;;;7.51;83.34
73024;BME280;72676;47.526;8.538;2023-12-14T06:11:50;95981.41;;;7.50;83.60
73024;BME280;72676;47.526;8.538;2023-12-14T06:14:17;95987.94;;;7.44;83.15
73024;BME280;72676;47.526;8.538;2023-12-14T06:16:44;96000.31;;;7.52;83.20
73024;BME280;72676;47.526;8.538;2023-12-14T06:19:10;95994.44;;;7.39;83.61
73024;BME280;72676;47.526;8.538;2023-12-14T06:21:37;96004.13;;;7.48;83.61
73024;BME280;72676;47.526;8.538;2023-12-14T06:24:04;96000.16;;;7.64;83.35
73024;BME280;72676;47.526;8.538;2023-12-14T06:26:31;96011.00;;;7.49;83.16
73024;BME280;72676;47.526;8.538;2023-12-14T06:28:57;96013.78;;;7.57;82.96
73024;BME280;72676;47.526;8.538;2023-12-14T06:31:24;96018.38;;;7.44;82.84
73024;BME280;72676;47.526;8.538;2023-12-14T06:33:50;96024.31;;;7.35;83.56
73024;BME280;72676;47.526;8.538;2023-12-14T06:36:17;96022.69;;;7.34;83.62
73024;BME280;72676;47.526;8.538;2023-12-14T06:38:46;96034.69;;;7.46;83.66
73024;BME280;72676;47.526;8.538;2023-12-14T06:41:22;96037.13;;;7.79;83.31
73024;BME280;72676;47.526;8.538;2023-12-14T06:43:49;96045.47;;;7.93;82.17
73024;BME280;72676;47.526;8.538;2023-12-14T06:46:16;96048.25;;;7.81;81.46
73024;BME280;72676;47.526;8.538;2023-12-14T06:48:43;96047.56;;;7.99;81.47
73024;BME280;72676;47.526;8.538;2023-12-14T06:51:09;96046.16;;;8.16;80.39
73024;BME280;72676;47.526;8.538;2023-12-14T06:53:40;96057.66;;;7.93;80.28
73024;BME280;72676;47.526;8.538;2023-12-14T06:56:07;96060.59;;;7.79;81.63
73024;BME280;72676;47.526;8.538;2023-12-14T06:58:42;96064.94;;;7.69;82.04
73024;BME280;72676;47.526;8.538;2023-12-14T07:01:13;96065.69;;;7.60;82.75
73024;BME280;72676;47.526;8.538;2023-12-14T07:03:41;96072.81;;;7.47;82.71
73024;BME280;72676;47.526;8.538;2023-12-14T07:06:14;96074.25;;;7.51;83.05
73024;BME280;72676;47.526;8.538;2023-12-14T07:08:41;96073.59;;;7.58;82.66
73024;BME280;72676;47.526;8.538;2023-12-14T07:11:09;96079.66;;;7.59;83.41
73024;BME280;72676;47.526;8.538;2023-12-14T07:13:36;96079.69;;;7.48;84.08
73024;BME280;72676;47.526;8.538;2023-12-14T07:16:08;96094.63;;;7.46;84.74
73024;BME280;72676;47.526;8.538;2023-12-14T07:18:36;96099.81;;;7.46;84.67
73024;BME280;72676;47.526;8.538;2023-12-14T07:21:03;96104.06;;;7.58;84.42
73024;BME280;72676;47.526;8.538;2023-12-14T07:23:30;96111.50;;;7.62;83.91
73024;BME280;72676;47.526;8.538;2023-12-14T07:25:57;96114.66;;;7.77;82.87
73024;BME280;72676;47.526;8.538;2023-12-14T07:28:28;96114.06;;;7.73;83.16
73024;BME280;72676;47.526;8.538;2023-12-14T07:30:55;96125.47;;;7.93;83.18
73024;BME280;72676;47.526;8.538;2023-12-14T07:33:22;96127.06;;;7.84;82.50
73024;BME280;72676;47.526;8.538;2023-12-14T07:35:49;96123.00;;;7.91;82.42
73024;BME280;72676;47.526;8.538;2023-12-14T07:38:15;96137.38;;;7.86;82.59
73024;BME280;72676;47.526;8.538;2023-12-14T07:40:42;96136.34;;;7.98;81.81
73024;BME280;72676;47.526;8.538;2023-12-14T07:43:09;96134.03;;;7.84;82.62
73024;BME280;72676;47.526;8.538;2023-12-14T07:45:35;96137.31;;;7.97;82.72
73024;BME280;72676;47.526;8.538;2023-12-14T07:48:02;96143.72;;;7.93;82.12
73024;BME280;72676;47.526;8.538;2023-12-14T07:50:30;96146.78;;;7.98;81.98
73024;BME280;72676;47.526;8.538;2023-12-14T07:52:57;96149.19;;;7.90;82.58
73024;BME280;72676;47.526;8.538;2023-12-14T07:55:23;96162.63;;;8.06;81.55
73024;BME280;72676;47.526;8.538;2023-12-14T07:57:50;96166.56;;;8.00;82.05
73024;BME280;72676;47.526;8.538;2023-12-14T08:00:17;96166.94;;;7.96;82.19
73024;BME280;72676;47.526;8.538;2023-12-14T08:02:44;96174.41;;;7.89;82.16
73024;BME280;72676;47.526;8.538;2023-12-14T08:05:11;96176.22;;;7.89;82.20
73024;BME280;72676;47.526;8.538;2023-12-14T08:07:38;96181.88;;;7.94;82.70
73024;BME280;72676;47.526;8.538;2023-12-14T08:10:04;96185.72;;;8.10;82.43
73024;BME280;72676;47.526;8.538;2023-12-14T08:12:31;96191.06;;;8.09;81.95
73024;BME280;72676;47.526;8.538;2023-12-14T08:14:59;96197.97;;;7.99;82.50
73024;BME280;72676;47.526;8.538;2023-12-14T08:17:25;96194.22;;;7.92;82.31
73024;BME280;72676;47.526;8.538;2023-12-14T08:19:54;96203.75;;;7.71;83.13
73024;BME280;72676;47.526;8.538;2023-12-14T08:22:21;96208.38;;;7.67;83.58
73024;BME280;72676;47.526;8.538;2023-12-14T08:24:48;96212.22;;;7.63;84.00
73024;BME280;72676;47.526;8.538;2023-12-14T08:27:14;96212.47;;;7.49;85.07
73024;BME280;72676;47.526;8.538;2023-12-14T08:29:41;96219.19;;;7.63;84.39
73024;BME280;72676;47.526;8.538;2023-12-14T08:32:08;96225.28;;;7.84;83.94
73024;BME280;72676;47.526;8.538;2023-12-14T08:34:34;96232.47;;;7.60;83.66
73024;BME280;72676;47.526;8.538;2023-12-14T08:37:01;96238.84;;;7.67;84.23
73024;BME280;72676;47.526;8.538;2023-12-14T08:39:28;96246.44;;;7.59;84.65
73024;BME280;72676;47.526;8.538;2023-12-14T08:41:54;96249.28;;;7.67;84.32
73024;BME280;72676;47.526;8.538;2023-12-14T08:44:21;96244.63;;;7.70;84.22
73024;BME280;72676;47.526;8.538;2023-12-14T08:46:47;96263.38;;;7.64;84.50
73024;BME280;72676;47.526;8.538;2023-12-14T08:49:15;96261.38;;;7.46;84.41
73024;BME280;72676;47.526;8.538;2023-12-14T08:51:42;96265.88;;;7.55;84.40
73024;BME280;72676;47.526;8.538;2023-12-14T08:54:09;96268.69;;;7.63;83.73
73024;BME280;72676;47.526;8.538;2023-12-14T08:56:36;96271.06;;;7.77;83.48
73024;BME280;72676;47.526;8.538;2023-12-14T08:59:02;96277.72;;;7.59;83.51
73024;BME280;72676;47.526;8.538;2023-12-14T09:01:30;96274.63;;;7.54;84.18
73024;BME280;72676;47.526;8.538;2023-12-14T09:03:57;96293.81;;;7.53;84.01
73024;BME280;72676;47.526;8.538;2023-12-14T09:06:23;96299.63;;;7.34;84.16
73024;BME280;72676;47.526;8.538;2023-12-14T09:08:50;96296.31;;;7.54;83.63
73024;BME280;72676;47.526;8.538;2023-12-14T09:11:16;96312.78;;;7.44;83.77
73024;BME280;72676;47.526;8.538;2023-12-14T09:13:43;96316.78;;;7.37;84.28
73024;BME280;72676;47.526;8.538;2023-12-14T09:16:09;96318.59;;;7.36;83.94
73024;BME280;72676;47.526;8.538;2023-12-14T09:18:36;96320.13;;;7.50;83.52
73024;BME280;72676;47.526;8.538;2023-12-14T09:21:03;96327.00;;;7.62;83.47
73024;BME280;72676;47.526;8.538;2023-12-14T09:23:30;96319.06;;;7.74;82.91
73024;BME280;72676;47.526;8.538;2023-12-14T09:25:57;96325.44;;;7.81;82.35
73024;BME280;72676;47.526;8.538;2023-12-14T09:28:25;96339.78;;;7.54;82.67
73024;BME280;72676;47.526;8.538;2023-12-14T09:30:52;96348.34;;;7.67;82.45
73024;BME280;72676;47.526;8.538;2023-12-14T09:33:18;96348.31;;;7.89;81.86
73024;BME280;72676;47.526;8.538;2023-12-14T09:35:46;96355.50;;;7.96;81.35
73024;BME280;72676;47.526;8.538;2023-12-14T09:38:12;96355.84;;;8.03;81.25
73024;BME280;72676;47.526;8.538;2023-12-14T09:40:43;96365.81;;;8.09;80.74
73024;BME280;72676;47.526;8.538;2023-12-14T09:43:10;96371.75;;;8.00;80.35
73024;BME280;72676;47.526;8.538;2023-12-14T09:45:41;96372.09;;;8.06;80.72
73024;BME280;72676;47.526;8.538;2023-12-14T09:48:11;96371.16;;;8.18;80.11
73024;BME280;72676;47.526;8.538;2023-12-14T09:50:39;96373.41;;;8.01;80.45
73024;BME280;72676;47.526;8.538;2023-12-14T09:53:06;96378.84;;;8.09;80.78
73024;BME280;72676;47.526;8.538;2023-12-14T09:55:34;96380.78;;;7.74;81.13
73024;BME280;72676;47.526;8.538;2023-12-14T09:58:00;96381.63;;;7.63;82.00
73024;BME280;72676;47.526;8.538;2023-12-14T10:00:33;96384.69;;;7.57;82.16
73024;BME280;72676;47.526;8.538;2023-12-14T10:03:26;96388.72;;;7.72;82.06
73024;BME280;72676;47.526;8.538;2023-12-14T10:05:55;96393.34;;;7.80;82.28
73024;BME280;72676;47.526;8.538;2023-12-14T10:08:22;96390.59;;;7.70;82.35
73024;BME280;72676;47.526;8.538;2023-12-14T10:10:52;96403.97;;;7.66;81.74
73024;BME280;72676;47.526;8.538;2023-12-14T10:13:21;96398.91;;;7.53;82.42
73024;BME280;72676;47.526;8.538;2023-12-14T10:15:48;96393.78;;;7.41;82.65
73024;BME280;72676;47.526;8.538;2023-12-14T10:18:22;96395.47;;;7.53;82.14
73024;BME280;72676;47.526;8.538;2023-12-14T10:20:51;96399.72;;;7.54;81.83
73024;BME280;72676;47.526;8.538;2023-12-14T10:23:18;96401.88;;;7.49;81.86
73024;BME280;72676;47.526;8.538;2023-12-14T10:25:45;96405.88;;;7.42;82.18
73024;BME280;72676;47.526;8.538;2023-12-14T10:28:12;96401.63;;;7.63;81.72
73024;BME280;72676;47.526;8.538;2023-12-14T10:30:42;96408.25;;;7.56;81.61
73024;BME280;72676;47.526;8.538;2023-12-14T10:33:08;96407.28;;;7.57;81.65
73024;BME280;72676;47.526;8.538;2023-12-14T10:35:35;96396.31;;;7.64;81.54
73024;BME280;72676;47.526;8.538;2023-12-14T10:38:04;96401.38;;;7.55;82.05
73024;BME280;72676;47.526;8.538;2023-12-14T10:40:36;96404.13;;;7.64;82.25
73024;BME280;72676;47.526;8.538;2023-12-14T10:43:07;96410.41;;;7.62;82.52
73024;BME280;72676;47.526;8.538;2023-12-14T10:45:34;96417.97;;;7.65;82.48
73024;BME280;72676;47.526;8.538;2023-12-14T10:48:01;96417.06;;;7.77;82.15
73024;BME280;72676;47.526;8.538;2023-12-14T10:50:30;96419.41;;;7.58;82.75
73024;BME280;72676;47.526;8.538;2023-12-14T10:52:59;96421.41;;;7.76;82.36
73024;BME280;72676;47.526;8.538;2023-12-14T10:55:40;96436.22;;;7.76;81.62
73024;BME280;72676;47.526;8.538;2023-12-14T10:58:08;96435.25;;;7.66;81.99
73024;BME280;72676;47.526;8.538;2023-12-14T11:00:37;96443.56;;;7.60;82.24
73024;BME280;72676;47.526;8.538;2023-12-14T11:03:06;96440.25;;;7.69;82.69
73024;BME280;72676;47.526;8.538;2023-12-14T11:05:33;96462.59;;;7.49;83.03
73024;BME280;72676;47.526;8.538;2023-12-14T11:08:05;96459.06;;;7.61;82.43
73024;BME280;72676;47.526;8.538;2023-12-14T11:10:43;96460.09;;;7.48;83.04
73024;BME280;72676;47.526;8.538;2023-12-14T11:13:13;96463.31;;;7.51;82.73
73024;BME280;72676;47.526;8.538;2023-12-14T11:15:47;96455.41;;;7.64;82.65
73024;BME280;72676;47.526;8.538;2023-12-14T11:23:33;96470.69;;;7.57;82.94
73024;BME280;72676;47.526;8.538;2023-12-14T11:26:03;96480.75;;;7.62;82.35
73024;BME280;72676;47.526;8.538;2023-12-14T11:28:35;96471.28;;;7.50;82.69
73024;BME280;72676;47.526;8.538;2023-12-14T11:31:03;96478.25;;;7.49;82.36
73024;BME280;72676;47.526;8.538;2023-12-14T11:33:33;96472.78;;;7.41;82.80
73024;BME280;72676;47.526;8.538;2023-12-14T11:36:02;96482.25;;;7.42;83.17
73024;BME280;72676;47.526;8.538;2023-12-14T11:38:30;96489.38;;;7.51;83.41
73024;BME280;72676;47.526;8.538;2023-12-14T11:40:57;96487.34;;;7.44;83.56
73024;BME280;72676;47.526;8.538;2023-12-14T11:43:24;96491.50;;;7.46;83.40
73024;BME280;72676;47.526;8.538;2023-12-14T11:45:52;96489.97;;;7.44;83.98
73024;BME280;72676;47.526;8.538;2023-12-14T11:48:21;96488.09;;;7.57;83.12
73024;BME280;72676;47.526;8.538;2023-12-14T11:50:48;96488.81;;;7.59;83.07
73024;BME280;72676;47.526;8.538;2023-12-14T11:53:14;96494.66;;;7.73;83.01
73024;BME280;72676;47.526;8.538;2023-12-14T11:55:42;96497.38;;;7.72;82.27
73024;BME280;72676;47.526;8.538;2023-12-14T11:58:12;96501.03;;;7.80;82.70
73024;BME280;72676;47.526;8.538;2023-12-14T12:00:40;96500.22;;;7.80;82.21
73024;BME280;72676;47.526;8.538;2023-12-14T12:03:14;96496.81;;;7.90;82.50
73024;BME280;72676;47.526;8.538;2023-12-14T12:05:51;96503.00;;;8.00;81.46
73024;BME280;72676;47.526;8.538;2023-12-14T12:08:20;96511.44;;;8.15;81.87
73024;BME280;72676;47.526;8.538;2023-12-14T12:10:48;96511.19;;;8.18;81.33
73024;BME280;72676;47.526;8.538;2023-12-14T12:13:17;96521.53;;;8.19;81.11
73024;BME280;72676;47.526;8.538;2023-12-14T12:15:44;96511.28;;;7.94;81.02
73024;BME280;72676;47.526;8.538;2023-12-14T12:18:13;96521.69;;;7.83;81.97
73024;BME280;72676;47.526;8.538;2023-12-14T12:20:40;96514.81;;;7.82;81.71
73024;BME280;72676;47.526;8.538;2023-12-14T12:23:07;96517.97;;;7.75;81.90
73024;BME280;72676;47.526;8.538;2023-12-14T12:25:34;96519.28;;;7.69;82.38
73024;BME280;72676;47.526;8.538;2023-12-14T12:28:02;96518.91;;;7.63;82.31
73024;BME280;72676;47.526;8.538;2023-12-14T12:30:30;96517.84;;;7.65;82.75
73024;BME280;72676;47.526;8.538;2023-12-14T12:32:56;96529.09;;;7.66;82.46
73024;BME280;72676;47.526;8.538;2023-12-14T12:35:24;96527.22;;;7.68;82.35
73024;BME280;72676;47.526;8.538;2023-12-14T12:37:51;96516.41;;;7.61;82.94
73024;BME280;72676;47.526;8.538;2023-12-14T12:40:22;96522.09;;;7.55;83.44
73024;BME280;72676;47.526;8.538;2023-12-14T12:42:49;96527.47;;;7.76;83.24
73024;BME280;72676;47.526;8.538;2023-12-14T12:45:16;96526.63;;;7.64;82.55
73024;BME280;72676;47.526;8.538;2023-12-14T12:47:44;96534.19;;;7.56;82.91
73024;BME280;72676;47.526;8.538;2023-12-14T12:50:12;96538.06;;;7.51;83.27
73024;BME280;72676;47.526;8.538;2023-12-14T12:52:39;96536.69;;;7.58;83.21
73024;BME280;72676;47.526;8.538;2023-12-14T12:55:06;96539.41;;;7.56;82.58
73024;BME280;72676;47.526;8.538;2023-12-14T12:57:33;96542.09;;;7.55;83.18
73024;BME280;72676;47.526;8.538;2023-12-14T13:00:00;96542.25;;;7.64;83.06
73024;BME280;72676;47.526;8.538;2023-12-14T13:02:27;96544.53;;;7.69;82.73
73024;BME280;72676;47.526;8.538;2023-12-14T13:04:53;96542.19;;;7.77;82.57
73024;BME280;72676;47.526;8.538;2023-12-14T13:07:20;96541.25;;;7.78;82.49
73024;BME280;72676;47.526;8.538;2023-12-14T13:09:46;96542.53;;;7.72;82.75
73024;BME280;72676;47.526;8.538;2023-12-14T13:12:13;96542.91;;;7.79;82.92
73024;BME280;72676;47.526;8.538;2023-12-14T13:14:40;96545.25;;;7.82;82.41
73024;BME280;72676;47.526;8.538;2023-12-14T13:17:06;96549.44;;;7.84;82.71